Home / US / Illinois / Meigs

Meigs, IL Weather

Current Report for Mon Jul 22 2019

As of 2:53 PM CDT MON JUL 22 2019

75°F 24°cMeigs weather conditions : Partly Cloudy

Partly Cloudy

Barometer: 30.07 inHg. rising

Humidity: 36%

Wind: N. 21mph

Wind Gust: 23mph

Wind Chill: 75°F

Dew Point: 46°F rising

Visibility: 10.00mi.

Sunrise: 5:33 AM

Sunset: 8:18 PM

Moon Phase: Waning Gibbous Moon

Daily and Hourly Summary

Loading Meigs IL Summary and Hourly data for today, tonight and tomorrow...
Forecast for Meigs, IL:
(Forecast based on TAF for )
0900 PM CDT SUN JUL 21 2019
  
OVERNIGHT MORNING AFTERNOON EVENING OVERNIGHT
Clear Clear Chance of Showers
Clear Clear Chance
Of
Showers
Original Encoded TAF:
Dated: 0900 PM CDT SUN JUL 21 2019
2019/07/22 21:03
TAF 
      AMD KMDW 222102Z 2221/2324 02016G25KT P6SM FEW050 
     FM230200 34007KT P6SM SKC 
     FM232100 02009KT P6SM SCT060 PROB30 2321/2324 6SM -SHRA

Temperatures Today (View More Charts)

Meigs, IL updates by locals

Write your own report, forecast, or traffic update:

Please note by clicking on "Post" you acknowledge that you have read the Terms of Service and the report and/or forecast you are posting is in compliance with such terms. Be respectful. An inappropriate post will be removed by a moderator. If you are not finding the information you want, please be sure to note the navigation tabs just above the breadcrumbs, which are links to other data relating to this city.
Become A Member